Time;durP1;ratioP1;P1;durP2;ratioP2;P2;SDS_P1;SDS_P2;PMS_P1;PMS_P2;Temp;Humidity;BMP_temperature;BMP_pressure;BME280_temperature;BME280_humidity;BME280_pressure;Samples;Min_cycle;Max_cycle;Signal;HPM_P1;HPM_P2
2023/05/10 00:02:22;;;;;;;2.42;0.88;;;15.20;99.90;;;;;;5042527;28;20025;-61
2023/05/10 00:04:50;;;;;;;2.92;1.48;;;15.40;99.90;;;;;;5034245;28;20053;-60
2023/05/10 00:07:18;;;;;;;5.57;1.55;;;15.50;99.90;;;;;;5039428;28;20036;-61
2023/05/10 00:09:45;;;;;;;8.73;1.30;;;15.60;99.90;;;;;;5044903;28;20021;-60
2023/05/10 00:12:13;;;;;;;2.72;1.80;;;15.80;99.90;;;;;;5044538;28;20438;-61
2023/05/10 00:14:40;;;;;;;2.95;1.20;;;15.90;99.90;;;;;;5024945;28;20036;-60
2023/05/10 00:17:07;;;;;;;1.50;0.90;;;16.00;99.90;;;;;;5045383;28;20024;-61
2023/05/10 00:19:35;;;;;;;3.83;1.45;;;16.00;99.90;;;;;;5023443;28;20040;-61
2023/05/10 00:22:02;;;;;;;6.25;1.42;;;16.10;99.90;;;;;;5037862;28;20040;-61
2023/05/10 00:24:30;;;;;;;3.63;1.30;;;16.20;99.90;;;;;;5030306;28;20120;-61
2023/05/10 00:26:58;;;;;;;3.70;1.42;;;16.40;99.90;;;;;;5039488;28;20073;-60
2023/05/10 00:29:25;;;;;;;1.42;0.88;;;16.50;99.90;;;;;;5040553;28;20028;-59
2023/05/10 00:31:53;;;;;;;3.08;0.82;;;16.60;99.90;;;;;;5045399;28;20112;-60
2023/05/10 00:34:20;;;;;;;1.20;0.73;;;16.70;99.90;;;;;;5025642;28;20032;-60
2023/05/10 00:36:48;;;;;;;1.67;1.10;;;16.90;99.90;;;;;;5042150;28;20025;-59
2023/05/10 00:39:15;;;;;;;3.45;1.08;;;17.00;99.90;;;;;;5036685;28;20075;-59
2023/05/10 00:41:42;;;;;;;2.13;1.10;;;17.00;99.90;;;;;;5043082;28;20029;-60
2023/05/10 00:44:10;;;;;;;2.72;1.08;;;17.10;99.90;;;;;;5038161;28;20033;-59
2023/05/10 00:46:37;;;;;;;2.85;0.93;;;17.20;99.90;;;;;;5035669;28;20099;-59
2023/05/10 00:49:05;;;;;;;2.20;0.90;;;17.30;99.90;;;;;;5039452;28;20136;-60
2023/05/10 00:51:34;;;;;;;2.00;1.13;;;17.40;99.90;;;;;;5044677;28;20377;-60
2023/05/10 00:54:02;;;;;;;3.05;1.02;;;17.40;99.90;;;;;;5039701;28;20017;-59
2023/05/10 00:56:30;;;;;;;5.03;1.05;;;17.60;99.40;;;;;;5036135;28;20087;-60
2023/05/10 00:58:58;;;;;;;1.30;0.80;;;17.60;97.60;;;;;;5033605;28;20426;-61
2023/05/10 01:01:26;;;;;;;1.55;0.73;;;17.70;98.00;;;;;;5043000;28;20055;-61
2023/05/10 01:03:53;;;;;;;2.97;1.13;;;17.80;96.30;;;;;;5036003;28;20068;-62
2023/05/10 01:06:21;;;;;;;2.85;1.08;;;17.80;97.90;;;;;;5039738;28;20051;-62
2023/05/10 01:08:48;;;;;;;2.80;0.98;;;17.90;97.50;;;;;;5036639;28;20018;-62
2023/05/10 01:11:16;;;;;;;3.63;0.63;;;17.90;95.70;;;;;;5035182;28;20140;-62
2023/05/10 01:13:46;;;;;;;1.52;1.00;;;18.00;96.30;;;;;;5040792;28;20482;-62
2023/05/10 01:16:14;;;;;;;1.23;0.63;;;18.10;93.60;;;;;;5039205;28;20029;-62
2023/05/10 01:18:43;;;;;;;2.08;1.02;;;18.20;92.30;;;;;;5044448;28;20039;-61
2023/05/10 01:21:24;;;;;;;1.15;0.40;;;18.20;92.00;;;;;;5037988;28;20020;-61
2023/05/10 01:24:15;;;;;;;1.80;0.65;;;18.40;91.20;;;;;;5036143;28;20025;-62
2023/05/10 01:27:10;;;;;;;1.48;0.60;;;18.30;90.00;;;;;;5041858;28;21855;-61
2023/05/10 01:29:47;;;;;;;3.05;0.80;;;18.50;89.30;;;;;;5048290;28;20087;-62
2023/05/10 01:32:31;;;;;;;1.83;0.70;;;18.50;86.00;;;;;;5043698;28;20511;-61
2023/05/10 01:35:09;;;;;;;4.97;1.00;;;18.60;90.10;;;;;;5014784;28;20033;-62
2023/05/10 01:37:50;;;;;;;1.92;0.93;;;18.70;86.20;;;;;;5045862;28;20033;-61
2023/05/10 01:40:48;;;;;;;1.00;0.80;;;18.70;87.60;;;;;;5024179;28;20435;-62
2023/05/10 01:43:28;;;;;;;1.25;0.88;;;18.90;86.40;;;;;;5028888;28;20048;-62
2023/05/10 01:46:21;;;;;;;1.10;0.60;;;18.90;82.80;;;;;;5042721;28;20040;-61
2023/05/10 01:48:52;;;;;;;3.08;0.80;;;18.90;84.40;;;;;;5040067;28;20076;-61
2023/05/10 01:51:24;;;;;;;4.10;0.70;;;18.90;84.10;;;;;;5048188;28;20061;-62
2023/05/10 01:53:59;;;;;;;4.20;1.05;;;19.00;83.70;;;;;;5046540;28;20025;-61
2023/05/10 01:56:30;;;;;;;1.98;0.80;;;19.00;84.20;;;;;;5035633;28;20036;-65
2023/05/10 01:58:59;;;;;;;3.17;0.82;;;19.00;79.20;;;;;;5046108;28;20482;-62
2023/05/10 02:01:27;;;;;;;2.95;0.75;;;19.10;82.10;;;;;;5048358;28;20025;-62
2023/05/10 02:03:56;;;;;;;3.03;0.75;;;19.10;81.80;;;;;;5037195;28;20273;-62
2023/05/10 02:06:24;;;;;;;2.22;0.77;;;19.20;79.70;;;;;;5048113;28;20128;-61
2023/05/10 02:08:53;;;;;;;1.75;0.98;;;19.20;77.10;;;;;;5041805;28;20058;-61
2023/05/10 02:11:22;;;;;;;1.40;0.60;;;19.20;79.60;;;;;;5042976;28;20482;-62
2023/05/10 02:13:52;;;;;;;3.35;0.52;;;19.20;77.40;;;;;;5047093;28;20081;-62
2023/05/10 02:16:23;;;;;;;3.05;0.90;;;19.20;77.10;;;;;;5045136;28;20016;-62
2023/05/10 02:18:52;;;;;;;2.83;0.75;;;19.30;77.20;;;;;;5044324;28;20090;-62
2023/05/10 02:21:21;;;;;;;2.72;0.98;;;19.30;76.80;;;;;;5047671;28;20071;-63
2023/05/10 02:23:51;;;;;;;1.23;0.55;;;19.40;80.00;;;;;;5035996;28;20025;-62
2023/05/10 02:26:21;;;;;;;1.15;0.60;;;19.50;75.40;;;;;;5038477;28;20112;-63
2023/05/10 02:28:49;;;;;;;1.73;0.63;;;19.50;77.90;;;;;;5044378;28;20040;-62
2023/05/10 02:31:18;;;;;;;2.08;1.02;;;19.50;75.60;;;;;;5038848;28;20094;-62
2023/05/10 02:33:46;;;;;;;1.30;0.80;;;19.60;75.80;;;;;;5042298;28;20017;-62
2023/05/10 02:36:14;;;;;;;1.27;0.63;;;19.60;75.40;;;;;;5046539;28;20440;-62
2023/05/10 02:38:43;;;;;;;2.45;0.80;;;19.60;77.40;;;;;;5046256;28;20036;-62
2023/05/10 02:41:11;;;;;;;2.15;0.88;;;19.40;78.10;;;;;;5040801;28;20373;-62
2023/05/10 02:43:40;;;;;;;1.50;0.70;;;19.50;75.80;;;;;;5041868;28;20068;-62
2023/05/10 02:46:08;;;;;;;2.90;0.90;;;19.50;73.90;;;;;;5038970;28;20090;-61
2023/05/10 02:48:35;;;;;;;1.15;0.77;;;19.50;74.50;;;;;;5039170;28;20044;-62
2023/05/10 02:51:07;;;;;;;5.78;1.00;;;19.60;76.60;;;;;;5039080;28;20034;-62
2023/05/10 02:53:39;;;;;;;2.42;0.70;;;19.80;78.70;;;;;;5045262;28;20029;-62
2023/05/10 02:56:24;;;;;;;1.80;0.52;;;19.90;78.80;;;;;;5042259;28;20088;-62
2023/05/10 02:58:53;;;;;;;1.58;0.70;;;19.90;73.70;;;;;;5032017;28;20021;-62
2023/05/10 03:01:20;;;;;;;1.30;0.70;;;19.80;71.20;;;;;;5032100;28;20061;-62
2023/05/10 03:03:47;;;;;;;1.52;0.77;;;19.80;72.20;;;;;;5042739;28;20026;-62
2023/05/10 03:06:16;;;;;;;2.17;0.80;;;19.70;74.80;;;;;;5043896;28;20040;-62
2023/05/10 03:08:44;;;;;;;5.45;1.10;;;19.80;74.50;;;;;;5046328;28;20108;-63
2023/05/10 03:11:27;;;;;;;2.00;0.85;;;19.80;75.40;;;;;;5055892;28;20020;-63
2023/05/10 03:14:10;;;;;;;1.77;0.60;;;19.90;75.60;;;;;;5042761;28;20029;-62
2023/05/10 03:17:02;;;;;;;1.55;0.60;;;20.00;72.10;;;;;;5024935;28;20397;-62
2023/05/10 03:19:40;;;;;;;1.60;0.63;;;20.00;73.20;;;;;;5015271;28;20436;-63
2023/05/10 03:22:13;;;;;;;1.60;0.90;;;20.10;76.30;;;;;;5048862;28;20033;-63
2023/05/10 03:24:42;;;;;;;1.52;0.80;;;20.10;73.40;;;;;;5060136;28;20024;-63
2023/05/10 03:27:10;;;;;;;1.63;0.50;;;20.10;71.50;;;;;;5051529;28;20069;-63
2023/05/10 03:29:39;;;;;;;2.28;0.93;;;20.00;72.50;;;;;;5046198;28;20025;-62
2023/05/10 03:32:07;;;;;;;3.00;0.68;;;20.10;71.10;;;;;;5045972;28;20083;-62
2023/05/10 03:34:34;;;;;;;1.67;1.08;;;19.90;74.30;;;;;;5047800;28;20021;-63
2023/05/10 03:37:01;;;;;;;3.38;1.15;;;20.00;73.30;;;;;;5038061;28;20099;-62
2023/05/10 03:39:29;;;;;;;2.72;0.90;;;19.90;73.30;;;;;;5026212;28;20044;-62
2023/05/10 03:41:56;;;;;;;1.70;0.52;;;19.70;71.20;;;;;;5028113;28;20040;-64
2023/05/10 03:44:24;;;;;;;1.73;0.60;;;19.70;73.00;;;;;;5040953;28;20025;-63
2023/05/10 03:46:51;;;;;;;2.83;0.70;;;19.60;72.80;;;;;;5042415;28;20069;-62
2023/05/10 03:49:19;;;;;;;2.22;0.65;;;19.60;71.30;;;;;;5033814;28;20359;-63
2023/05/10 03:51:46;;;;;;;3.72;0.90;;;19.60;72.90;;;;;;5026829;28;20665;-62
2023/05/10 03:54:14;;;;;;;1.88;0.90;;;19.50;75.00;;;;;;5026033;28;20037;-62
2023/05/10 03:56:42;;;;;;;1.77;0.80;;;19.60;72.20;;;;;;5038981;28;20516;-62
2023/05/10 03:59:09;;;;;;;2.38;0.70;;;19.60;72.00;;;;;;5026344;28;20123;-63
2023/05/10 04:01:37;;;;;;;1.30;0.65;;;19.60;72.80;;;;;;5041019;28;20028;-62
2023/05/10 04:04:04;;;;;;;2.80;0.85;;;19.70;72.50;;;;;;5022921;28;20025;-62
2023/05/10 04:06:32;;;;;;;2.25;1.33;;;19.60;73.00;;;;;;5024467;28;20537;-62
2023/05/10 04:09:03;;;;;;;1.05;0.60;;;19.60;73.10;;;;;;5025086;28;20032;-63
2023/05/10 04:11:31;;;;;;;1.10;0.50;;;19.70;75.30;;;;;;5035279;28;20056;-63
2023/05/10 04:13:58;;;;;;;2.70;0.70;;;19.70;74.30;;;;;;5042778;28;20489;-63
2023/05/10 04:16:26;;;;;;;1.83;0.70;;;19.80;73.20;;;;;;5038571;28;20422;-64
2023/05/10 04:18:53;;;;;;;1.85;0.70;;;19.80;73.80;;;;;;5034888;28;20021;-62
2023/05/10 04:21:21;;;;;;;2.63;0.82;;;19.90;74.50;;;;;;5023452;28;20116;-63
2023/05/10 04:23:48;;;;;;;1.45;0.50;;;19.90;72.80;;;;;;5039666;28;20017;-63
2023/05/10 04:26:16;;;;;;;2.80;0.68;;;19.90;72.50;;;;;;5047931;28;20567;-63
2023/05/10 04:28:43;;;;;;;3.13;0.77;;;19.90;72.40;;;;;;5036640;28;20374;-63
2023/05/10 04:31:12;;;;;;;3.25;0.70;;;19.90;74.10;;;;;;5046148;28;20486;-62
2023/05/10 04:33:39;;;;;;;2.65;1.15;;;19.80;72.40;;;;;;5044094;28;21822;-63
2023/05/10 04:36:07;;;;;;;2.40;0.75;;;19.80;73.40;;;;;;5047950;28;20064;-62
2023/05/10 04:38:34;;;;;;;4.22;0.90;;;19.80;71.80;;;;;;5043712;28;20021;-62
2023/05/10 04:41:09;;;;;;;4.60;0.80;;;19.60;71.70;;;;;;5047534;28;20409;-63
2023/05/10 04:43:37;;;;;;;0.93;0.55;;;19.60;73.30;;;;;;5040013;28;20512;-62
2023/05/10 04:46:06;;;;;;;2.10;0.80;;;19.60;72.20;;;;;;5043028;28;20037;-63
2023/05/10 04:48:34;;;;;;;4.70;0.98;;;19.50;70.80;;;;;;5032349;28;20198;-63
2023/05/10 04:51:03;;;;;;;4.28;0.85;;;19.50;73.60;;;;;;5044373;28;20039;-64
2023/05/10 04:53:31;;;;;;;6.47;1.30;;;19.40;74.10;;;;;;5045858;28;20539;-64
2023/05/10 04:55:58;;;;;;;2.40;0.70;;;19.40;73.70;;;;;;5043967;28;20029;-64
2023/05/10 04:58:26;;;;;;;3.22;0.70;;;19.40;73.50;;;;;;5044207;28;20040;-63
2023/05/10 05:00:53;;;;;;;5.55;1.08;;;19.30;74.80;;;;;;5039727;28;20029;-62
2023/05/10 05:03:21;;;;;;;2.72;0.65;;;19.30;73.70;;;;;;5039565;28;20509;-63
2023/05/10 05:05:49;;;;;;;1.05;0.70;;;19.30;73.80;;;;;;5037224;28;20371;-61
2023/05/10 05:08:17;;;;;;;0.85;0.57;;;19.30;72.10;;;;;;5053914;28;20187;-62
2023/05/10 05:10:44;;;;;;;1.20;0.60;;;19.20;72.60;;;;;;5046235;28;20439;-62
2023/05/10 05:13:13;;;;;;;3.00;0.70;;;19.20;75.50;;;;;;5046416;28;20017;-63
2023/05/10 05:15:41;;;;;;;1.55;0.80;;;19.20;75.20;;;;;;5024002;28;20061;-62
2023/05/10 05:18:08;;;;;;;2.58;0.60;;;19.20;75.40;;;;;;5028745;28;20017;-64
2023/05/10 05:20:36;;;;;;;2.38;0.73;;;19.10;76.50;;;;;;5047717;28;20056;-63
2023/05/10 05:23:03;;;;;;;5.45;1.23;;;19.00;75.50;;;;;;5019212;28;20651;-62
2023/05/10 05:25:31;;;;;;;1.52;0.70;;;19.10;76.50;;;;;;5045746;28;20025;-64
2023/05/10 05:27:58;;;;;;;4.57;0.98;;;19.10;77.50;;;;;;5045434;28;20063;-65
2023/05/10 05:30:25;;;;;;;3.80;0.80;;;19.00;77.10;;;;;;5049835;28;20029;-64
2023/05/10 05:32:53;;;;;;;2.47;0.80;;;19.00;77.30;;;;;;5040199;28;20478;-64
2023/05/10 05:35:20;;;;;;;2.70;0.90;;;19.00;77.40;;;;;;5029515;28;20029;-65
2023/05/10 05:37:48;;;;;;;6.97;1.30;;;18.90;76.40;;;;;;5049709;28;20024;-64
2023/05/10 05:40:15;;;;;;;3.53;0.80;;;18.90;76.40;;;;;;5047858;28;20703;-63
2023/05/10 05:42:43;;;;;;;1.65;0.60;;;18.80;75.60;;;;;;5049761;28;20021;-64
2023/05/10 05:45:12;;;;;;;2.30;0.70;;;18.80;77.60;;;;;;5039794;28;20032;-64
2023/05/10 05:47:40;;;;;;;3.58;0.68;;;18.70;77.70;;;;;;5042933;28;20129;-63
2023/05/10 05:50:08;;;;;;;3.20;0.98;;;18.70;78.60;;;;;;5056935;28;20029;-63
2023/05/10 05:52:36;;;;;;;1.27;0.73;;;18.60;79.00;;;;;;5042413;28;21726;-64
2023/05/10 05:55:03;;;;;;;2.88;1.15;;;18.60;80.70;;;;;;5045657;28;20021;-64
2023/05/10 05:57:31;;;;;;;1.48;0.77;;;18.60;78.00;;;;;;5047588;28;20036;-63
2023/05/10 05:59:59;;;;;;;1.00;0.60;;;18.50;78.10;;;;;;5041379;28;20021;-63
2023/05/10 06:02:26;;;;;;;3.70;1.23;;;18.40;79.30;;;;;;5046400;28;20127;-63
2023/05/10 06:04:54;;;;;;;3.17;1.33;;;18.40;79.70;;;;;;5042488;28;20025;-58
2023/05/10 06:07:21;;;;;;;4.75;1.35;;;18.40;79.40;;;;;;5041444;28;20029;-59
2023/05/10 06:09:49;;;;;;;2.58;0.70;;;18.30;78.10;;;;;;5041904;28;20021;-58
2023/05/10 06:12:16;;;;;;;2.00;0.50;;;18.20;80.00;;;;;;5038902;28;20051;-58
2023/05/10 06:14:44;;;;;;;1.70;0.60;;;18.10;79.30;;;;;;5026441;28;20021;-57
2023/05/10 06:17:11;;;;;;;2.15;0.75;;;18.10;80.20;;;;;;5036786;28;20063;-57
2023/05/10 06:19:38;;;;;;;7.68;1.35;;;18.10;84.20;;;;;;5029352;28;20487;-56
2023/05/10 06:22:06;;;;;;;6.78;1.73;;;18.10;89.10;;;;;;5038001;28;20052;-57
2023/05/10 06:24:33;;;;;;;4.63;1.40;;;18.00;91.80;;;;;;5040476;28;20028;-55
2023/05/10 06:27:01;;;;;;;4.10;0.88;;;18.00;92.80;;;;;;5046582;28;20083;-56
2023/05/10 06:29:29;;;;;;;6.07;1.23;;;17.90;93.90;;;;;;5029772;28;20031;-58
2023/05/10 06:31:56;;;;;;;7.63;1.20;;;17.90;94.50;;;;;;5039903;28;20029;-52
2023/05/10 06:34:24;;;;;;;13.65;1.73;;;17.80;95.00;;;;;;5028168;28;20031;-51
2023/05/10 06:36:51;;;;;;;5.88;1.30;;;17.70;96.40;;;;;;5048398;28;20564;-59
2023/05/10 06:39:19;;;;;;;4.25;1.45;;;17.60;96.80;;;;;;5038912;28;20410;-62
2023/05/10 06:41:46;;;;;;;4.60;1.40;;;17.50;96.90;;;;;;5036967;28;20788;-62
2023/05/10 06:44:13;;;;;;;5.25;1.52;;;17.40;97.90;;;;;;5047402;28;20441;-64
2023/05/10 06:46:41;;;;;;;6.35;1.25;;;17.30;98.40;;;;;;5034586;28;20037;-64
2023/05/10 06:49:09;;;;;;;2.67;1.00;;;17.30;99.10;;;;;;5045810;28;20048;-64
2023/05/10 06:51:36;;;;;;;7.00;1.67;;;17.20;99.90;;;;;;5027492;28;20060;-64
2023/05/10 06:54:04;;;;;;;1.98;1.23;;;17.10;99.90;;;;;;5038109;28;20112;-64
2023/05/10 06:56:31;;;;;;;5.75;1.27;;;17.00;99.90;;;;;;5017778;28;20021;-63
2023/05/10 06:58:58;;;;;;;4.22;1.20;;;16.90;99.90;;;;;;5050623;28;20159;-61
2023/05/10 07:01:26;;;;;;;4.60;1.42;;;16.90;99.90;;;;;;5046824;28;20048;-61
2023/05/10 07:03:53;;;;;;;5.30;1.17;;;16.80;99.90;;;;;;5045334;28;20076;-59
2023/05/10 07:06:21;;;;;;;4.57;1.67;;;16.70;99.90;;;;;;5042564;28;20139;-61
2023/05/10 07:08:48;;;;;;;6.45;1.80;;;16.60;99.90;;;;;;5046650;28;20029;-60
2023/05/10 07:11:16;;;;;;;4.80;1.10;;;16.50;99.90;;;;;;5030374;28;20497;-56
2023/05/10 07:13:45;;;;;;;5.00;1.02;;;16.40;99.90;;;;;;5038752;28;20021;-60
2023/05/10 07:16:13;;;;;;;3.50;1.27;;;16.30;99.90;;;;;;5042105;28;20037;-60
2023/05/10 07:18:41;;;;;;;6.38;1.30;;;16.20;99.90;;;;;;5048675;28;20036;-60
2023/05/10 07:21:08;;;;;;;6.35;1.30;;;16.10;99.90;;;;;;5040913;28;20021;-60
2023/05/10 07:23:35;;;;;;;4.18;1.52;;;16.10;99.90;;;;;;5017968;28;20033;-60
2023/05/10 07:26:03;;;;;;;4.25;1.17;;;16.00;99.90;;;;;;5043013;28;20486;-60
2023/05/10 07:28:30;;;;;;;6.63;0.93;;;15.90;99.90;;;;;;5036958;28;20026;-60
2023/05/10 07:30:58;;;;;;;10.05;1.85;;;15.70;99.90;;;;;;5042431;28;20083;-61
2023/05/10 07:33:25;;;;;;;4.00;1.45;;;15.70;99.90;;;;;;5041919;28;20057;-59
2023/05/10 07:35:53;;;;;;;3.33;1.23;;;15.60;99.90;;;;;;5014199;28;20431;-60
2023/05/10 07:38:20;;;;;;;3.58;1.10;;;15.40;99.90;;;;;;5038205;28;20036;-61
2023/05/10 07:40:48;;;;;;;3.30;1.15;;;15.30;99.90;;;;;;5041114;28;20017;-59
2023/05/10 07:43:15;;;;;;;7.93;1.05;;;15.20;99.90;;;;;;5045771;28;20035;-60
2023/05/10 07:45:43;;;;;;;2.85;1.33;;;14.90;99.90;;;;;;5045740;28;20100;-64
2023/05/10 07:48:10;;;;;;;6.35;1.02;;;14.70;99.90;;;;;;5043929;28;20122;-59
2023/05/10 07:50:38;;;;;;;4.97;1.40;;;14.70;99.90;;;;;;5035698;28;20025;-60
2023/05/10 07:53:05;;;;;;;7.43;1.50;;;14.60;99.90;;;;;;5037608;28;20112;-60
2023/05/10 07:55:33;;;;;;;6.72;1.80;;;14.60;99.90;;;;;;5042574;28;20465;-60
2023/05/10 07:58:01;;;;;;;6.75;1.75;;;14.60;99.90;;;;;;5041101;28;20033;-59
2023/05/10 08:00:28;;;;;;;7.00;1.25;;;14.60;99.90;;;;;;5042627;28;20017;-61
2023/05/10 08:02:55;;;;;;;8.10;1.60;;;14.50;99.90;;;;;;5035316;28;20121;-60
2023/05/10 08:05:23;;;;;;;4.53;1.83;;;14.40;99.90;;;;;;5041098;28;20071;-59
2023/05/10 08:07:51;;;;;;;7.25;1.52;;;14.30;99.90;;;;;;5044437;28;20045;-59
2023/05/10 08:10:18;;;;;;;7.00;1.33;;;14.20;99.90;;;;;;5048737;28;20065;-59
2023/05/10 08:12:45;;;;;;;7.43;1.92;;;14.10;99.90;;;;;;5033773;28;20116;-59
2023/05/10 08:15:13;;;;;;;4.93;1.70;;;13.90;99.90;;;;;;5034134;28;20531;-60
2023/05/10 08:17:40;;;;;;;8.70;1.55;;;13.80;99.90;;;;;;5032475;28;20028;-60
2023/05/10 08:20:08;;;;;;;6.60;2.60;;;13.80;99.90;;;;;;5027525;28;20119;-60
2023/05/10 08:22:37;;;;;;;9.32;3.42;;;13.60;99.90;;;;;;5042198;28;20029;-59
2023/05/10 08:25:05;;;;;;;10.02;2.70;;;13.70;99.90;;;;;;5050496;28;20017;-59
2023/05/10 08:27:32;;;;;;;11.23;2.20;;;13.70;99.90;;;;;;5035891;28;20043;-59
2023/05/10 08:30:00;;;;;;;7.65;2.53;;;13.70;99.90;;;;;;5048117;28;20453;-60
2023/05/10 08:32:27;;;;;;;6.65;2.03;;;13.70;99.90;;;;;;5044963;28;20079;-63
2023/05/10 08:34:56;;;;;;;5.63;1.83;;;13.70;99.90;;;;;;5043363;28;20104;-51
2023/05/10 08:37:24;;;;;;;3.75;1.50;;;13.80;99.90;;;;;;5045741;28;20051;-60
2023/05/10 08:39:52;;;;;;;5.97;1.80;;;13.90;99.90;;;;;;5016363;28;20078;-59
2023/05/10 08:42:25;;;;;;;7.90;2.53;;;14.00;99.90;;;;;;5041590;28;20067;-60
2023/05/10 08:44:53;;;;;;;5.88;1.73;;;14.00;99.90;;;;;;5044358;28;20021;-59
2023/05/10 08:47:21;;;;;;;5.47;1.25;;;14.00;99.90;;;;;;5025943;28;20044;-59
2023/05/10 08:49:50;;;;;;;6.82;2.25;;;14.00;99.90;;;;;;5043640;28;20088;-59
2023/05/10 08:52:19;;;;;;;10.55;3.08;;;13.90;99.90;;;;;;5022286;28;20029;-59
2023/05/10 08:54:47;;;;;;;10.88;2.40;;;13.80;99.90;;;;;;5027730;28;20017;-59
2023/05/10 08:57:15;;;;;;;5.85;1.85;;;13.60;99.90;;;;;;5022151;28;20025;-60
2023/05/10 08:59:42;;;;;;;5.18;1.58;;;13.40;99.90;;;;;;5033467;28;20422;-59
2023/05/10 09:02:13;;;;;;;6.47;1.80;;;13.20;99.90;;;;;;5037626;28;20029;-58
2023/05/10 09:04:41;;;;;;;7.78;2.70;;;13.00;99.90;;;;;;5040497;28;20021;-59
2023/05/10 09:07:09;;;;;;;8.35;2.45;;;12.80;99.90;;;;;;5033215;28;20037;-59
2023/05/10 09:09:37;;;;;;;5.00;1.58;;;12.70;99.90;;;;;;5022435;28;20029;-61
2023/05/10 09:12:05;;;;;;;3.47;1.50;;;12.50;99.90;;;;;;5034864;28;20045;-63
2023/05/10 09:14:35;;;;;;;5.80;1.67;;;12.30;99.90;;;;;;5036680;28;20021;-59
2023/05/10 09:17:03;;;;;;;6.18;1.75;;;12.20;99.90;;;;;;5031559;28;20044;-61
2023/05/10 09:19:30;;;;;;;6.00;1.42;;;12.00;99.90;;;;;;5018649;28;20083;-61
2023/05/10 09:22:00;;;;;;;8.98;1.95;;;11.80;99.90;;;;;;5032995;28;20025;-60
2023/05/10 09:24:27;;;;;;;5.85;1.95;;;11.70;99.90;;;;;;5054077;28;20056;-62
2023/05/10 09:26:57;;;;;;;5.00;1.65;;;11.60;99.90;;;;;;5022914;28;20041;-60
2023/05/10 09:29:24;;;;;;;5.00;2.33;;;11.50;99.90;;;;;;5029951;28;20032;-61
2023/05/10 09:31:56;;;;;;;6.03;1.50;;;11.30;99.90;;;;;;5026864;28;20024;-61
2023/05/10 09:34:35;;;;;;;5.55;1.92;;;11.20;99.90;;;;;;5027324;28;20032;-60
2023/05/10 09:37:04;;;;;;;8.93;2.60;;;11.10;99.90;;;;;;5029543;28;20162;-61
2023/05/10 09:39:36;;;;;;;6.90;2.67;;;11.10;99.90;;;;;;5017605;28;20025;-60
2023/05/10 09:42:06;;;;;;;8.93;2.75;;;11.00;99.90;;;;;;5032496;28;20098;-60
2023/05/10 09:44:38;;;;;;;9.88;2.80;;;10.90;99.90;;;;;;5021596;28;20055;-61
2023/05/10 09:47:05;;;;;;;13.40;2.28;;;10.90;99.90;;;;;;5035828;28;21374;-61
2023/05/10 09:49:33;;;;;;;9.70;2.40;;;10.80;99.90;;;;;;5044923;28;20125;-60
2023/05/10 09:52:05;;;;;;;5.07;2.05;;;10.80;99.90;;;;;;5044313;28;20645;-61
2023/05/10 09:54:34;;;;;;;7.22;2.90;;;10.80;99.90;;;;;;5048006;28;20048;-61
2023/05/10 09:57:02;;;;;;;14.07;3.58;;;10.70;99.90;;;;;;5042620;28;20079;-61
2023/05/10 09:59:30;;;;;;;10.55;2.25;;;10.70;99.90;;;;;;5024586;28;20056;-60
2023/05/10 10:02:00;;;;;;;8.98;2.78;;;10.70;99.90;;;;;;5041430;28;20049;-60
2023/05/10 10:04:29;;;;;;;13.80;2.67;;;10.70;99.90;;;;;;5045116;28;20024;-61
2023/05/10 10:07:05;;;;;;;11.32;3.60;;;10.70;99.90;;;;;;5045116;28;20099;-60
2023/05/10 10:09:33;;;;;;;11.70;2.70;;;10.70;99.90;;;;;;5024613;28;20124;-61
2023/05/10 10:12:02;;;;;;;8.32;2.30;;;10.60;99.90;;;;;;5035794;28;20025;-61
2023/05/10 10:14:32;;;;;;;10.27;2.40;;;10.60;99.90;;;;;;5041619;28;20021;-60
2023/05/10 10:17:01;;;;;;;9.88;2.60;;;10.60;99.90;;;;;;5025194;28;20108;-61
2023/05/10 10:19:30;;;;;;;6.38;2.22;;;10.50;99.90;;;;;;5028228;28;20028;-61
2023/05/10 10:21:58;;;;;;;11.50;2.97;;;10.40;99.90;;;;;;5038028;28;20036;-65
2023/05/10 10:24:26;;;;;;;9.68;3.33;;;10.40;99.90;;;;;;5042409;28;20053;-61
2023/05/10 10:26:57;;;;;;;8.40;2.60;;;10.30;99.90;;;;;;5047406;28;20033;-61
2023/05/10 10:29:53;;;;;;;9.43;3.05;;;10.30;99.90;;;;;;5023239;28;20030;-62
2023/05/10 10:32:52;;;;;;;11.20;3.28;;;10.30;99.90;;;;;;5039033;28;20040;-61
2023/05/10 10:35:20;;;;;;;12.82;2.47;;;10.30;99.90;;;;;;5036004;28;20176;-60
2023/05/10 10:37:51;;;;;;;15.52;2.80;;;10.30;99.90;;;;;;5035999;28;20016;-60
2023/05/10 10:40:36;;;;;;;7.78;2.13;;;10.40;99.90;;;;;;5041985;28;20604;-60
2023/05/10 10:43:29;;;;;;;9.65;2.33;;;10.40;99.90;;;;;;5028321;28;20033;-61
2023/05/10 10:46:20;;;;;;;9.88;3.13;;;10.50;99.90;;;;;;5036403;28;20486;-60
2023/05/10 10:49:12;;;;;;;9.57;2.30;;;10.50;99.90;;;;;;5037783;28;20045;-61
2023/05/10 10:51:40;;;;;;;14.75;2.78;;;10.60;99.90;;;;;;5041433;28;20493;-60
2023/05/10 10:54:27;;;;;;;6.60;2.78;;;10.60;99.90;;;;;;5040227;28;20128;-61
2023/05/10 10:57:14;;;;;;;9.90;2.95;;;10.70;99.90;;;;;;5031702;28;20033;-60
2023/05/10 10:59:45;;;;;;;8.27;2.47;;;10.80;99.90;;;;;;5039224;28;20402;-60
2023/05/10 11:02:48;;;;;;;12.15;2.53;;;10.80;99.90;;;;;;5027833;28;20627;-60
2023/05/10 11:05:46;;;;;;;14.85;3.13;;;10.80;99.90;;;;;;5043157;28;20783;-61
2023/05/10 11:08:30;;;;;;;8.13;2.58;;;10.90;99.90;;;;;;5024721;28;20045;-60
2023/05/10 11:11:06;;;;;;;23.67;2.75;;;10.90;99.90;;;;;;5043308;28;20086;-60
2023/05/10 11:13:41;;;;;;;14.35;2.33;;;10.90;99.90;;;;;;5039998;28;20025;-60
2023/05/10 11:16:29;;;;;;;9.40;3.00;;;10.80;99.90;;;;;;5014900;28;20040;-60
2023/05/10 11:19:09;;;;;;;13.05;2.58;;;10.80;99.90;;;;;;5043369;28;20040;-60
2023/05/10 11:22:06;;;;;;;7.57;2.83;;;10.80;99.90;;;;;;5039768;28;20074;-60
2023/05/10 11:24:35;;;;;;;7.80;2.63;;;10.80;99.90;;;;;;5031403;28;20072;-60
2023/05/10 11:27:03;;;;;;;6.75;2.60;;;10.80;99.90;;;;;;5045485;28;20560;-59
2023/05/10 11:29:31;;;;;;;7.70;2.22;;;10.70;99.90;;;;;;5042772;28;20025;-59
2023/05/10 11:32:00;;;;;;;9.35;2.58;;;10.80;99.90;;;;;;5043718;28;20482;-59
2023/05/10 11:34:30;;;;;;;10.23;3.08;;;10.80;99.90;;;;;;5044176;28;20028;-61
2023/05/10 11:36:58;;;;;;;10.85;2.30;;;10.80;99.90;;;;;;5040148;28;20032;-60
2023/05/10 11:39:34;;;;;;;8.07;2.55;;;10.80;99.90;;;;;;5044242;28;20088;-61
2023/05/10 11:42:01;;;;;;;6.75;1.60;;;10.80;99.90;;;;;;5035028;28;20380;-59
2023/05/10 11:44:33;;;;;;;9.82;2.22;;;10.80;99.90;;;;;;5043055;28;20496;-60
2023/05/10 11:47:01;;;;;;;5.30;1.80;;;10.80;99.90;;;;;;5039688;28;20379;-60
2023/05/10 11:49:29;;;;;;;8.38;2.10;;;10.80;99.90;;;;;;5045480;28;20033;-60
2023/05/10 11:52:07;;;;;;;6.22;2.00;;;10.70;99.90;;;;;;5044757;28;20059;-60
2023/05/10 11:54:35;;;;;;;13.35;2.33;;;10.70;99.90;;;;;;5023854;28;20029;-62
2023/05/10 11:57:02;;;;;;;6.65;2.35;;;10.70;99.90;;;;;;5042904;28;20021;-60
2023/05/10 11:59:30;;;;;;;7.43;2.33;;;10.70;99.90;;;;;;5032651;28;20116;-60
2023/05/10 12:01:58;;;;;;;7.72;2.25;;;10.70;99.90;;;;;;5043453;28;20028;-61
2023/05/10 12:04:29;;;;;;;7.10;1.75;;;10.70;99.90;;;;;;5021653;28;20029;-60
2023/05/10 12:06:56;;;;;;;5.75;3.20;;;10.70;99.90;;;;;;5028778;28;20037;-60
2023/05/10 12:09:24;;;;;;;9.30;2.72;;;10.80;99.90;;;;;;5054445;28;20128;-60
2023/05/10 12:11:56;;;;;;;10.98;3.17;;;10.80;99.90;;;;;;5037178;28;20029;-60
2023/05/10 12:14:24;;;;;;;8.32;2.10;;;10.80;99.90;;;;;;5022818;28;20021;-61
2023/05/10 12:16:52;;;;;;;10.70;2.47;;;10.80;99.90;;;;;;5017631;28;20033;-60
2023/05/10 12:19:21;;;;;;;4.40;1.98;;;10.80;99.90;;;;;;5045563;28;20033;-59
2023/05/10 12:21:48;;;;;;;7.10;2.22;;;10.80;99.90;;;;;;5029306;28;20017;-58
2023/05/10 12:24:19;;;;;;;9.15;1.95;;;10.80;99.90;;;;;;5021864;28;20033;-59
2023/05/10 12:26:50;;;;;;;5.30;2.47;;;10.80;99.90;;;;;;5046479;28;20493;-59
2023/05/10 12:29:19;;;;;;;10.07;2.00;;;10.70;99.90;;;;;;5028451;28;20116;-59
2023/05/10 12:32:05;;;;;;;6.65;1.92;;;10.60;99.90;;;;;;5025543;28;20255;-60
2023/05/10 12:34:35;;;;;;;7.97;2.50;;;10.60;99.90;;;;;;5033243;28;20025;-60
2023/05/10 12:37:03;;;;;;;7.93;2.00;;;10.60;99.90;;;;;;5046537;28;20420;-60
2023/05/10 12:39:45;;;;;;;7.10;2.28;;;10.50;99.90;;;;;;5045202;28;20013;-60
2023/05/10 12:42:13;;;;;;;6.43;1.88;;;10.50;99.90;;;;;;5026508;28;20398;-61
2023/05/10 12:44:40;;;;;;;7.30;2.30;;;10.50;99.90;;;;;;5047109;28;20028;-61
2023/05/10 12:47:08;;;;;;;9.27;2.22;;;10.50;99.90;;;;;;5033858;28;20033;-60
2023/05/10 12:49:35;;;;;;;9.63;2.55;;;10.40;99.90;;;;;;5045091;28;20044;-61
2023/05/10 12:52:03;;;;;;;11.45;3.90;;;10.40;99.90;;;;;;5044194;28;20385;-60
2023/05/10 12:54:30;;;;;;;7.38;3.20;;;10.30;99.90;;;;;;5040777;28;20025;-60
2023/05/10 12:56:58;;;;;;;13.65;3.95;;;10.30;99.90;;;;;;5048019;28;20505;-62
2023/05/10 12:59:25;;;;;;;8.10;3.72;;;10.20;99.90;;;;;;5046483;28;20559;-60
2023/05/10 13:01:53;;;;;;;8.70;3.67;;;10.20;99.90;;;;;;5037482;28;20482;-60